createdAt,value
2023-05-19T00:01:22.566Z,1.80
2023-05-19T00:03:52.551Z,2.13
2023-05-19T00:06:27.621Z,1.27
2023-05-19T00:08:59.612Z,2.42
2023-05-19T00:11:27.217Z,1.90
2023-05-19T00:13:55.405Z,1.77
2023-05-19T00:16:24.017Z,1.85
2023-05-19T00:18:51.654Z,2.17
2023-05-19T00:21:18.580Z,1.90
2023-05-19T00:23:45.567Z,2.13
2023-05-19T00:26:12.445Z,2.20
2023-05-19T00:28:46.091Z,1.75
2023-05-19T00:31:12.680Z,2.05
2023-05-19T00:33:39.305Z,1.75
2023-05-19T00:36:06.716Z,2.30
2023-05-19T00:38:35.396Z,2.47
2023-05-19T00:41:03.389Z,1.75
2023-05-19T00:43:30.325Z,2.17
2023-05-19T00:45:58.091Z,1.58
2023-05-19T00:48:25.625Z,1.92
2023-05-19T00:50:54.885Z,2.28
2023-05-19T00:53:23.063Z,2.00
2023-05-19T00:55:49.770Z,1.90
2023-05-19T00:58:17.089Z,2.17
2023-05-19T01:00:44.233Z,2.28
2023-05-19T01:03:15.158Z,1.98
2023-05-19T01:05:44.601Z,2.25
2023-05-19T01:08:11.796Z,2.60
2023-05-19T01:10:38.458Z,2.05
2023-05-19T01:13:06.381Z,1.98
2023-05-19T01:16:07.061Z,2.85
2023-05-19T01:18:39.840Z,2.00
2023-05-19T01:21:18.111Z,2.92
2023-05-19T01:24:01.423Z,2.17
2023-05-19T01:26:47.209Z,2.28
2023-05-19T01:29:36.760Z,1.73
2023-05-19T01:32:04.674Z,2.38
2023-05-19T01:34:31.903Z,2.10
2023-05-19T01:37:01.435Z,2.53
2023-05-19T01:39:28.358Z,2.33
2023-05-19T01:41:55.844Z,2.38
2023-05-19T01:44:23.791Z,2.03
2023-05-19T01:46:50.999Z,1.70
2023-05-19T01:49:17.577Z,2.25
2023-05-19T01:51:44.976Z,2.03
2023-05-19T01:54:11.587Z,2.00
2023-05-19T01:57:11.187Z,2.85
2023-05-19T01:59:54.365Z,2.55
2023-05-19T02:02:45.956Z,2.03
2023-05-19T02:05:28.580Z,2.53
2023-05-19T02:08:13.952Z,2.47
2023-05-19T02:10:45.576Z,2.35
2023-05-19T02:13:14.366Z,2.20
2023-05-19T02:15:42.536Z,2.40
2023-05-19T02:18:11.672Z,2.20
2023-05-19T02:20:39.970Z,2.85
2023-05-19T02:23:07.081Z,2.22
2023-05-19T02:25:33.864Z,2.30
2023-05-19T02:28:00.538Z,2.15
2023-05-19T02:30:31.684Z,2.72
2023-05-19T02:33:00.443Z,2.45
2023-05-19T02:35:27.848Z,2.50
2023-05-19T02:37:54.516Z,2.30
2023-05-19T02:40:22.196Z,2.10
2023-05-19T02:42:49.627Z,2.53
2023-05-19T02:45:16.445Z,2.25
2023-05-19T02:47:43.197Z,2.42
2023-05-19T02:50:09.835Z,2.10
2023-05-19T02:52:36.524Z,2.25
2023-05-19T02:55:03.290Z,2.80
2023-05-19T02:57:31.612Z,2.10
2023-05-19T02:59:58.253Z,2.33
2023-05-19T03:02:25.068Z,2.22
2023-05-19T03:04:51.715Z,2.88
2023-05-19T03:07:18.403Z,2.40
2023-05-19T03:09:44.975Z,2.78
2023-05-19T03:12:11.588Z,1.63
2023-05-19T03:14:38.573Z,2.38
2023-05-19T03:17:07.583Z,2.47
2023-05-19T03:19:34.423Z,2.72
2023-05-19T03:22:01.033Z,1.98
2023-05-19T03:24:27.621Z,2.53
2023-05-19T03:26:55.073Z,2.20
2023-05-19T03:29:22.105Z,2.15
2023-05-19T03:31:48.688Z,2.72
2023-05-19T03:34:16.429Z,2.25
2023-05-19T03:36:44.915Z,2.05
2023-05-19T03:39:15.409Z,2.30
2023-05-19T03:41:42.172Z,1.90
2023-05-19T03:44:08.770Z,2.72
2023-05-19T03:46:35.381Z,2.30
2023-05-19T03:49:07.885Z,2.33
2023-05-19T03:51:58.009Z,2.33
2023-05-19T03:54:33.767Z,2.80
2023-05-19T03:57:00.451Z,2.08
2023-05-19T03:59:28.714Z,2.25
2023-05-19T04:01:57.671Z,2.00
2023-05-19T04:04:26.550Z,2.13
2023-05-19T04:06:53.197Z,2.17
2023-05-19T04:09:20.547Z,2.42
2023-05-19T04:11:47.175Z,2.78
2023-05-19T04:14:13.892Z,2.65
2023-05-19T04:16:41.601Z,2.72
2023-05-19T04:19:08.706Z,3.50
2023-05-19T04:21:35.342Z,2.65
2023-05-19T04:24:06.564Z,2.58
2023-05-19T04:26:34.303Z,2.58
2023-05-19T04:29:04.168Z,2.45
2023-05-19T04:31:31.102Z,2.38
2023-05-19T04:33:57.688Z,2.22
2023-05-19T04:36:24.547Z,2.35
2023-05-19T04:38:54.857Z,2.20
2023-05-19T04:41:23.356Z,2.65
2023-05-19T04:43:50.019Z,2.47
2023-05-19T04:46:18.289Z,3.40
2023-05-19T04:48:45.432Z,2.65
2023-05-19T04:51:14.052Z,2.92
2023-05-19T04:53:41.598Z,2.72
2023-05-19T04:56:13.547Z,2.95
2023-05-19T04:58:41.955Z,2.50
2023-05-19T05:01:09.524Z,2.58
2023-05-19T05:03:37.023Z,2.55
2023-05-19T05:06:04.469Z,2.72
2023-05-19T05:08:31.274Z,2.95
2023-05-19T05:10:59.335Z,2.70
2023-05-19T05:13:26.536Z,3.25
2023-05-19T05:15:54.109Z,2.88
2023-05-19T05:18:21.371Z,2.97
2023-05-19T05:20:48.418Z,2.08
2023-05-19T05:23:16.552Z,2.47
2023-05-19T05:25:46.846Z,2.65
2023-05-19T05:28:14.911Z,2.50
2023-05-19T05:30:43.502Z,2.40
2023-05-19T05:33:10.539Z,2.10
2023-05-19T05:35:39.142Z,2.88
2023-05-19T05:38:08.062Z,2.65
2023-05-19T05:40:36.165Z,2.00
2023-05-19T05:43:04.064Z,2.38
2023-05-19T05:45:34.594Z,2.20
2023-05-19T05:48:02.007Z,1.92
2023-05-19T05:50:30.093Z,2.42
2023-05-19T05:52:59.081Z,2.22
2023-05-19T05:55:27.001Z,1.98
2023-05-19T05:57:53.908Z,2.10
2023-05-19T06:00:22.299Z,2.08
2023-05-19T06:02:52.464Z,2.25
2023-05-19T06:05:20.273Z,2.30
2023-05-19T06:07:48.112Z,3.60
2023-05-19T06:10:19.963Z,1.95
2023-05-19T06:12:48.031Z,1.90
2023-05-19T06:15:15.433Z,2.50
2023-05-19T06:17:59.711Z,2.30
2023-05-19T06:20:26.567Z,2.10
2023-05-19T06:22:53.717Z,2.05
2023-05-19T06:25:21.842Z,2.00
2023-05-19T06:27:48.508Z,2.28
2023-05-19T06:30:15.930Z,2.05
2023-05-19T06:32:57.614Z,1.80
2023-05-19T06:35:25.411Z,2.08
2023-05-19T06:37:53.051Z,1.60
2023-05-19T06:40:20.348Z,1.85
2023-05-19T06:42:47.410Z,1.70
2023-05-19T06:45:16.635Z,2.22
2023-05-19T06:47:44.440Z,1.92
2023-05-19T06:50:11.253Z,2.80
2023-05-19T06:52:41.230Z,1.85
2023-05-19T06:55:08.153Z,2.17
2023-05-19T06:57:37.139Z,2.00
2023-05-19T07:00:06.065Z,1.70
2023-05-19T07:02:33.160Z,2.10
2023-05-19T07:04:59.856Z,2.08
2023-05-19T07:07:27.307Z,1.77
2023-05-19T07:09:55.475Z,1.92
2023-05-19T07:12:22.235Z,2.53
2023-05-19T07:14:48.829Z,2.22
2023-05-19T07:17:16.711Z,1.80
2023-05-19T07:19:44.982Z,2.20
2023-05-19T07:22:11.692Z,2.60
2023-05-19T07:24:38.237Z,1.88
2023-05-19T07:27:05.374Z,2.03
2023-05-19T07:29:31.915Z,2.72
2023-05-19T07:31:58.631Z,2.15
2023-05-19T07:34:25.304Z,1.95
2023-05-19T07:36:52.078Z,1.88
2023-05-19T07:39:19.023Z,1.95
2023-05-19T07:41:52.450Z,2.00
2023-05-19T07:44:19.191Z,2.00
2023-05-19T07:46:45.978Z,1.60
2023-05-19T07:49:12.641Z,2.15
2023-05-19T07:51:39.194Z,1.55
2023-05-19T07:54:05.871Z,1.75
2023-05-19T07:56:32.560Z,1.67
2023-05-19T07:58:59.112Z,2.55
2023-05-19T08:01:26.112Z,2.13
2023-05-19T08:03:53.158Z,2.20
2023-05-19T08:06:19.775Z,2.00
2023-05-19T08:08:47.216Z,2.60
2023-05-19T08:11:14.029Z,1.73
2023-05-19T08:13:41.035Z,1.73
2023-05-19T08:16:07.852Z,2.10
2023-05-19T08:18:34.554Z,1.85
2023-05-19T08:21:01.394Z,1.55
2023-05-19T08:23:28.158Z,1.80
2023-05-19T08:25:54.794Z,1.48
2023-05-19T08:28:21.459Z,1.92
2023-05-19T08:30:48.140Z,1.45
2023-05-19T08:33:14.898Z,1.70
2023-05-19T08:35:41.623Z,1.45
2023-05-19T08:38:08.221Z,2.47
2023-05-19T08:40:37.904Z,2.45
2023-05-19T08:43:04.576Z,1.83
2023-05-19T08:45:34.404Z,1.13
2023-05-19T08:48:01.317Z,1.45
2023-05-19T08:50:31.159Z,1.40
2023-05-19T08:53:31.772Z,1.67
2023-05-19T08:56:14.737Z,1.33
2023-05-19T08:58:43.898Z,1.60
2023-05-19T09:01:14.901Z,1.90
2023-05-19T09:03:43.422Z,1.48
2023-05-19T09:06:14.113Z,1.58
2023-05-19T09:08:42.526Z,1.30
2023-05-19T09:11:10.117Z,1.90
2023-05-19T09:13:36.893Z,1.55
2023-05-19T09:16:04.116Z,1.60
2023-05-19T09:18:31.364Z,1.23
2023-05-19T09:21:02.278Z,1.42
2023-05-19T09:23:31.601Z,0.98
2023-05-19T09:26:07.221Z,1.50
2023-05-19T09:28:36.297Z,1.55
2023-05-19T09:31:05.447Z,1.90
2023-05-19T09:33:38.185Z,1.25
2023-05-19T09:36:06.374Z,1.40
2023-05-19T09:38:33.098Z,1.23
2023-05-19T09:41:00.957Z,1.08
2023-05-19T09:43:33.313Z,0.90
2023-05-19T09:46:03.530Z,1.08
2023-05-19T09:48:30.460Z,1.42
2023-05-19T09:50:57.885Z,1.42
2023-05-19T09:53:25.384Z,1.05
2023-05-19T09:55:59.116Z,1.90
2023-05-19T09:58:26.844Z,1.52
2023-05-19T10:00:57.086Z,1.25
2023-05-19T10:03:25.160Z,1.15
2023-05-19T10:05:53.420Z,1.38
2023-05-19T10:08:21.453Z,1.30
2023-05-19T10:10:48.189Z,1.45
2023-05-19T10:13:17.581Z,1.02
2023-05-19T10:15:57.019Z,1.20
2023-05-19T10:18:26.892Z,1.60
2023-05-19T10:20:54.325Z,1.25
2023-05-19T10:23:21.067Z,1.27
2023-05-19T10:25:49.154Z,1.92
2023-05-19T10:28:18.370Z,1.42
2023-05-19T10:30:47.657Z,1.50
2023-05-19T10:33:18.117Z,1.75
2023-05-19T10:36:15.886Z,1.58
2023-05-19T10:38:52.129Z,1.23
2023-05-19T10:41:27.349Z,1.02
2023-05-19T10:44:17.534Z,0.95
2023-05-19T10:46:44.295Z,1.48
2023-05-19T10:49:19.592Z,1.60
2023-05-19T10:51:46.709Z,1.10
2023-05-19T10:54:15.972Z,1.55
2023-05-19T10:56:48.687Z,1.08
2023-05-19T10:59:32.501Z,1.10
2023-05-19T11:02:04.817Z,1.75
2023-05-19T11:05:07.522Z,1.23
2023-05-19T11:07:34.289Z,1.70
2023-05-19T11:10:05.951Z,1.55
2023-05-19T11:12:44.618Z,1.55
2023-05-19T11:15:15.730Z,1.17
2023-05-19T11:17:46.156Z,1.40
2023-05-19T11:20:29.720Z,1.23
2023-05-19T11:23:09.704Z,1.30
2023-05-19T11:25:43.025Z,1.02
2023-05-19T11:28:12.343Z,1.33
2023-05-19T11:30:42.592Z,1.15
2023-05-19T11:33:09.703Z,1.77
2023-05-19T11:35:37.148Z,1.35
2023-05-19T11:38:04.058Z,1.33
2023-05-19T11:40:30.776Z,1.50
2023-05-19T11:42:58.201Z,1.33
2023-05-19T11:45:26.254Z,0.77
2023-05-19T11:50:27.024Z,1.30
2023-05-19T11:52:56.850Z,1.20
2023-05-19T11:55:23.662Z,1.38
2023-05-19T11:58:05.555Z,1.55
2023-05-19T12:00:38.895Z,1.25
2023-05-19T12:03:06.206Z,0.98
2023-05-19T12:05:39.877Z,0.77
2023-05-19T12:08:08.887Z,1.35
2023-05-19T12:10:35.780Z,0.95
2023-05-19T12:13:03.309Z,1.55
2023-05-19T12:15:31.619Z,1.38
2023-05-19T12:18:00.133Z,1.13
2023-05-19T12:20:31.930Z,1.00
2023-05-19T12:23:00.198Z,1.30
2023-05-19T12:25:27.602Z,1.23
2023-05-19T12:27:59.049Z,1.48
2023-05-19T12:30:30.894Z,1.73
2023-05-19T12:32:58.275Z,1.58
2023-05-19T12:35:29.765Z,1.45
2023-05-19T12:37:56.505Z,1.45
2023-05-19T12:40:23.345Z,1.20
2023-05-19T12:42:53.360Z,1.42
2023-05-19T12:45:22.902Z,2.13
2023-05-19T12:47:50.470Z,1.65
2023-05-19T12:50:17.137Z,1.20
2023-05-19T12:52:50.898Z,1.38
2023-05-19T12:55:18.314Z,1.60
2023-05-19T12:57:56.843Z,1.27
2023-05-19T13:00:27.605Z,1.45
2023-05-19T13:03:05.064Z,1.40
2023-05-19T13:05:43.688Z,1.60
2023-05-19T13:08:11.833Z,1.55
2023-05-19T13:10:40.732Z,1.50
2023-05-19T13:13:08.338Z,1.50
2023-05-19T13:15:37.743Z,1.17
2023-05-19T13:18:07.316Z,1.20
2023-05-19T13:20:34.792Z,1.27
2023-05-19T13:23:02.680Z,1.10
2023-05-19T13:25:29.332Z,1.77
2023-05-19T13:27:56.701Z,1.50
2023-05-19T13:30:23.712Z,1.20
2023-05-19T13:32:52.413Z,1.20
2023-05-19T13:35:19.857Z,1.15
2023-05-19T13:37:46.388Z,1.42
2023-05-19T13:40:13.409Z,1.38
2023-05-19T13:42:40.834Z,1.60
2023-05-19T13:45:08.278Z,1.38
2023-05-19T13:47:35.099Z,1.17
2023-05-19T13:50:04.332Z,1.25
2023-05-19T13:52:31.012Z,1.30
2023-05-19T13:54:57.797Z,1.05
2023-05-19T13:57:25.430Z,1.45
2023-05-19T14:00:01.866Z,1.23
2023-05-19T14:02:39.506Z,0.77
2023-05-19T14:05:07.225Z,1.08
2023-05-19T14:07:34.984Z,0.85
2023-05-19T14:10:03.005Z,1.15
2023-05-19T14:12:38.198Z,0.93
2023-05-19T14:15:14.207Z,1.15
2023-05-19T14:17:40.775Z,1.20
2023-05-19T14:20:08.376Z,1.00
2023-05-19T14:22:34.959Z,1.20
2023-05-19T14:25:02.260Z,1.00
2023-05-19T14:27:28.938Z,0.95
2023-05-19T14:29:55.557Z,1.30
2023-05-19T14:32:22.487Z,1.25
2023-05-19T14:34:52.676Z,1.42
2023-05-19T14:37:19.937Z,1.00
2023-05-19T14:39:46.476Z,1.23
2023-05-19T14:42:13.250Z,1.38
2023-05-19T14:44:39.818Z,1.08
2023-05-19T14:47:07.364Z,1.02
2023-05-19T14:49:34.206Z,1.08
2023-05-19T14:52:01.120Z,1.48
2023-05-19T14:54:28.046Z,1.42
2023-05-19T14:56:54.696Z,1.02
2023-05-19T14:59:21.679Z,1.13
2023-05-19T15:01:48.450Z,1.05
2023-05-19T15:04:15.389Z,1.20
2023-05-19T15:06:42.179Z,1.25
2023-05-19T15:09:09.321Z,1.08
2023-05-19T15:11:35.985Z,1.65
2023-05-19T15:14:02.747Z,1.48
2023-05-19T15:16:29.513Z,1.10
2023-05-19T15:18:56.666Z,1.10
2023-05-19T15:21:23.395Z,1.00
2023-05-19T15:23:50.023Z,1.23
2023-05-19T15:26:16.836Z,1.20
2023-05-19T15:28:43.428Z,1.48
2023-05-19T15:31:10.195Z,1.13
2023-05-19T15:33:36.852Z,1.23
2023-05-19T15:36:03.619Z,1.20
2023-05-19T15:38:30.694Z,1.23
2023-05-19T15:40:57.455Z,1.00
2023-05-19T15:43:23.985Z,1.10
2023-05-19T15:45:54.728Z,0.90
2023-05-19T15:48:21.442Z,1.20
2023-05-19T15:50:48.693Z,1.27
2023-05-19T15:53:15.570Z,1.15
2023-05-19T15:55:42.110Z,1.20
2023-05-19T15:58:08.868Z,1.13
2023-05-19T16:00:35.753Z,1.35
2023-05-19T16:03:02.641Z,1.10
2023-05-19T16:05:29.282Z,1.00
2023-05-19T16:07:56.182Z,0.85
2023-05-19T16:10:22.851Z,1.17
2023-05-19T16:12:49.429Z,0.95
2023-05-19T16:15:16.022Z,1.20
2023-05-19T16:17:42.770Z,1.20
2023-05-19T16:20:10.204Z,1.02
2023-05-19T16:22:36.812Z,0.90
2023-05-19T16:25:03.618Z,1.20
2023-05-19T16:27:30.257Z,1.02
2023-05-19T16:29:56.880Z,1.20
2023-05-19T16:32:24.079Z,0.90
2023-05-19T16:34:50.677Z,1.25
2023-05-19T16:37:17.247Z,1.17
2023-05-19T16:39:44.816Z,1.60
2023-05-19T16:42:11.409Z,1.00
2023-05-19T16:44:37.928Z,1.02
2023-05-19T16:47:04.729Z,0.85
2023-05-19T16:49:33.448Z,1.08
2023-05-19T16:52:00.284Z,1.30
2023-05-19T16:54:28.401Z,0.93
2023-05-19T16:56:54.951Z,1.23
2023-05-19T16:59:21.648Z,0.88
2023-05-19T17:01:48.499Z,1.00
2023-05-19T17:04:15.310Z,1.20
2023-05-19T17:06:41.900Z,1.10
2023-05-19T17:09:08.475Z,1.08
2023-05-19T17:11:35.227Z,1.35
2023-05-19T17:14:04.060Z,1.05
2023-05-19T17:16:30.838Z,1.17
2023-05-19T17:18:57.473Z,1.10
2023-05-19T17:21:24.200Z,1.30
2023-05-19T17:23:51.265Z,1.20
2023-05-19T17:26:17.924Z,0.95
2023-05-19T17:28:44.600Z,1.13
2023-05-19T17:31:15.128Z,1.63
2023-05-19T17:33:41.748Z,1.10
2023-05-19T17:36:08.814Z,1.27
2023-05-19T17:38:35.697Z,1.08
2023-05-19T17:41:02.765Z,0.85
2023-05-19T17:43:29.462Z,0.65
2023-05-19T17:45:56.546Z,1.10
2023-05-19T17:48:25.722Z,0.82
2023-05-19T17:50:52.239Z,1.15
2023-05-19T17:53:19.225Z,1.30
2023-05-19T17:55:51.070Z,1.40
2023-05-19T17:58:18.724Z,0.88
2023-05-19T18:00:46.376Z,1.33
2023-05-19T18:03:13.351Z,1.02
2023-05-19T18:05:41.106Z,1.00
2023-05-19T18:08:09.424Z,1.60
2023-05-19T18:10:41.615Z,1.02
2023-05-19T18:13:09.864Z,1.00
2023-05-19T18:15:37.016Z,0.90
2023-05-19T18:18:07.713Z,1.23
2023-05-19T18:20:34.928Z,1.10
2023-05-19T18:23:02.082Z,1.02
2023-05-19T18:25:28.649Z,0.70
2023-05-19T18:27:58.100Z,1.25
2023-05-19T18:30:24.797Z,0.85
2023-05-19T18:32:51.443Z,0.90
2023-05-19T18:35:20.625Z,0.93
2023-05-19T18:37:48.364Z,1.10
2023-05-19T18:40:14.919Z,1.20
2023-05-19T18:42:41.565Z,0.88
2023-05-19T18:45:08.537Z,1.00
2023-05-19T18:47:35.252Z,1.20
2023-05-19T18:50:02.026Z,0.77
2023-05-19T18:52:29.005Z,1.02
2023-05-19T18:54:55.720Z,1.30
2023-05-19T18:57:22.344Z,0.98
2023-05-19T18:59:48.934Z,1.10
2023-05-19T19:02:15.544Z,0.93
2023-05-19T19:04:42.147Z,1.05
2023-05-19T19:07:08.832Z,0.90
2023-05-19T19:09:35.599Z,1.00
2023-05-19T19:12:02.417Z,1.20
2023-05-19T19:14:28.981Z,1.20
2023-05-19T19:16:56.024Z,1.25
2023-05-19T19:19:23.719Z,1.25
2023-05-19T19:21:50.612Z,1.33
2023-05-19T19:24:17.253Z,1.10
2023-05-19T19:26:43.963Z,1.30
2023-05-19T19:29:10.541Z,1.10
2023-05-19T19:31:37.144Z,1.23
2023-05-19T19:34:08.977Z,1.08
2023-05-19T19:36:36.229Z,1.10
2023-05-19T19:39:02.935Z,1.30
2023-05-19T19:41:30.022Z,1.00
2023-05-19T19:43:56.570Z,1.00
2023-05-19T19:46:23.298Z,1.45
2023-05-19T19:48:49.954Z,1.30
2023-05-19T19:51:16.679Z,1.00
2023-05-19T19:53:43.512Z,0.82
2023-05-19T19:56:10.168Z,1.27
2023-05-19T19:58:36.826Z,1.10
2023-05-19T20:01:04.094Z,1.13
2023-05-19T20:03:31.638Z,1.00
2023-05-19T20:05:58.666Z,0.82
2023-05-19T20:08:26.526Z,0.85
2023-05-19T20:10:53.741Z,1.15
2023-05-19T20:13:20.634Z,1.05
2023-05-19T20:15:47.712Z,1.27
2023-05-19T20:18:14.357Z,1.10
2023-05-19T20:20:41.633Z,1.48
2023-05-19T20:23:08.898Z,1.70
2023-05-19T20:25:50.120Z,0.98
2023-05-19T20:28:26.184Z,1.40
2023-05-19T20:30:52.797Z,1.40
2023-05-19T20:33:19.399Z,0.98
2023-05-19T20:35:46.124Z,1.27
2023-05-19T20:38:12.787Z,1.25
2023-05-19T20:40:39.446Z,1.00
2023-05-19T20:43:06.152Z,0.90
2023-05-19T20:45:33.056Z,1.10
2023-05-19T20:48:00.622Z,1.00
2023-05-19T20:50:27.283Z,1.00
2023-05-19T20:52:53.939Z,1.30
2023-05-19T20:55:20.516Z,1.30
2023-05-19T20:57:47.093Z,1.17
2023-05-19T21:00:14.177Z,1.10
2023-05-19T21:02:40.962Z,1.38
2023-05-19T21:05:08.131Z,1.02
2023-05-19T21:07:34.749Z,1.10
2023-05-19T21:10:01.367Z,1.55
2023-05-19T21:12:33.671Z,1.10
2023-05-19T21:15:01.407Z,1.10
2023-05-19T21:17:28.048Z,1.40
2023-05-19T21:19:57.756Z,0.90
2023-05-19T21:22:25.972Z,1.00
2023-05-19T21:24:53.559Z,1.00
2023-05-19T21:27:20.189Z,1.40
2023-05-19T21:29:47.164Z,1.10
2023-05-19T21:32:13.703Z,1.15
2023-05-19T21:34:40.340Z,1.30
2023-05-19T21:37:06.895Z,1.40
2023-05-19T21:39:33.491Z,0.93
2023-05-19T21:42:00.038Z,1.08
2023-05-19T21:44:26.776Z,1.35
2023-05-19T21:46:53.437Z,1.20
2023-05-19T21:49:20.424Z,1.35
2023-05-19T21:51:47.005Z,1.27
2023-05-19T21:54:13.566Z,0.90
2023-05-19T21:56:40.190Z,1.20
2023-05-19T21:59:06.904Z,1.00
2023-05-19T22:01:33.718Z,1.10
2023-05-19T22:04:01.197Z,1.25
2023-05-19T22:06:27.818Z,1.00
2023-05-19T22:08:54.542Z,1.08
2023-05-19T22:11:21.306Z,1.13
2023-05-19T22:13:47.905Z,1.00
2023-05-19T22:16:14.540Z,1.40
2023-05-19T22:18:41.622Z,0.90
2023-05-19T22:21:08.153Z,1.35
2023-05-19T22:23:34.790Z,1.25
2023-05-19T22:26:01.356Z,0.95
2023-05-19T22:28:27.965Z,1.33
2023-05-19T22:30:54.682Z,1.40
2023-05-19T22:33:21.287Z,1.33
2023-05-19T22:35:47.862Z,1.27
2023-05-19T22:38:14.615Z,1.70
2023-05-19T22:40:41.159Z,1.13
2023-05-19T22:43:07.737Z,1.50
2023-05-19T22:45:36.354Z,1.38
2023-05-19T22:48:03.395Z,1.17
2023-05-19T22:50:29.983Z,1.38
2023-05-19T22:52:56.625Z,1.42
2023-05-19T22:55:23.198Z,1.27
2023-05-19T22:57:50.058Z,1.48
2023-05-19T23:00:20.537Z,1.73
2023-05-19T23:02:47.346Z,1.20
2023-05-19T23:05:14.180Z,1.20
2023-05-19T23:07:40.789Z,1.83
2023-05-19T23:10:07.753Z,1.48
2023-05-19T23:12:34.485Z,1.17
2023-05-19T23:15:01.168Z,1.45
2023-05-19T23:17:27.868Z,1.23
2023-05-19T23:19:54.455Z,1.20
2023-05-19T23:22:21.080Z,1.50
2023-05-19T23:24:47.800Z,1.38
2023-05-19T23:27:14.384Z,1.33
2023-05-19T23:29:40.937Z,1.40
2023-05-19T23:32:07.842Z,1.10
2023-05-19T23:34:34.402Z,1.77
2023-05-19T23:37:01.041Z,0.93
2023-05-19T23:39:27.648Z,1.13
2023-05-19T23:41:54.223Z,1.30
2023-05-19T23:44:20.865Z,1.27
2023-05-19T23:46:47.531Z,1.35
2023-05-19T23:49:14.536Z,1.05
2023-05-19T23:51:41.274Z,1.00
2023-05-19T23:54:07.890Z,1.23
2023-05-19T23:56:34.507Z,1.33
2023-05-19T23:59:01.209Z,1.35
